Wetterdaten: Mittwoch, 19.09.2012
Datum Zeit Temperatur Luftfeuchte Luftdruck Regen Wind Richtung Richtung Sonnenschein Taupunkt Windchill
19.09.2012 00:00 11,8 C 68 % 1013,7 hPa 0,0 l/m 0,0 km/h (0 Bft) W 280 0 min 6,1 C 11,8 C
19.09.2012 00:05 11,6 C 68 % 1013,7 hPa 0,0 l/m 0,0 km/h (0 Bft) W 280 0 min 5,9 C 11,6 C
19.09.2012 00:10 11,4 C 68 % 1013,7 hPa 0,0 l/m 0,0 km/h (0 Bft) W-NW 285 0 min 5,7 C 11,4 C
19.09.2012 00:14 11,3 C 68 % 1013,7 hPa 0,0 l/m 0,0 km/h (0 Bft) W-NW 285 0 min 5,6 C 11,3 C
19.09.2012 00:19 11,2 C 68 % 1013,7 hPa 0,0 l/m 0,0 km/h (0 Bft) W-NW 285 0 min 5,5 C 11,2 C
19.09.2012 00:24 11,2 C 69 % 1013,7 hPa 0,0 l/m 1,2 km/h (1 Bft) NW 310 0 min 5,7 C 11,2 C
19.09.2012 00:29 11,3 C 69 % 1013,7 hPa 0,0 l/m 5,8 km/h (2 Bft) W-NW 285 0 min 5,8 C 11,3 C
19.09.2012 00:35 11,4 C 70 % 1013,7 hPa 0,0 l/m 10,7 km/h (2 Bft) W-NW 300 0 min 6,1 C 8,8 C
19.09.2012 00:40 11,2 C 69 % 1013,7 hPa 0,0 l/m 0,1 km/h (0 Bft) W 275 0 min 5,7 C 11,2 C
19.09.2012 00:44 10,9 C 70 % 1013,7 hPa 0,0 l/m 0,0 km/h (0 Bft) NW 310 0 min 5,6 C 10,9 C
19.09.2012 00:49 10,9 C 70 % 1013,7 hPa 0,0 l/m 7,1 km/h (2 Bft) NW 310 0 min 5,6 C 10,4 C
19.09.2012 00:54 10,7 C 70 % 1013,7 hPa 0,0 l/m 7,6 km/h (2 Bft) W-NW 295 0 min 5,5 C 9,9 C
19.09.2012 00:59 10,5 C 70 % 1013,7 hPa 0,0 l/m 0,6 km/h (0 Bft) W-SW 255 0 min 5,3 C 10,5 C
19.09.2012 01:04 10,4 C 70 % 1013,7 hPa 0,0 l/m 0,0 km/h (0 Bft) W-SW 250 0 min 5,2 C 10,4 C
19.09.2012 01:09 10,2 C 70 % 1013,7 hPa 0,0 l/m 0,0 km/h (0 Bft) W 260 0 min 5,0 C 10,2 C
19.09.2012 01:14 10,0 C 69 % 1014,7 hPa 0,0 l/m 0,6 km/h (0 Bft) W 260 0 min 4,6 C 10,0 C
19.09.2012 01:19 10,0 C 69 % 1014,7 hPa 0,0 l/m 0,0 km/h (0 Bft) W-NW 285 0 min 4,6 C 10,0 C
19.09.2012 01:24 9,8 C 70 % 1014,7 hPa 0,0 l/m 0,0 km/h (0 Bft) W 280 0 min 4,6 C 9,8 C
19.09.2012 01:29 9,6 C 70 % 1014,7 hPa 0,0 l/m 0,0 km/h (0 Bft) W 280 0 min 4,4 C 9,6 C
19.09.2012 01:34 9,4 C 70 % 1014,7 hPa 0,0 l/m 0,0 km/h (0 Bft) W 280 0 min 4,2 C 9,4 C
19.09.2012 01:39 9,3 C 70 % 1014,7 hPa 0,0 l/m 0,0 km/h (0 Bft) W 280 0 min 4,1 C 9,3 C
19.09.2012 01:44 9,2 C 70 % 1014,7 hPa 0,0 l/m 0,0 km/h (0 Bft) W-NW 285 0 min 4,0 C 9,2 C
19.09.2012 01:49 9,2 C 70 % 1014,7 hPa 0,0 l/m 0,0 km/h (0 Bft) W-NW 285 0 min 4,0 C 9,2 C
19.09.2012 01:54 9,1 C 70 % 1014,7 hPa 0,0 l/m 0,0 km/h (0 Bft) W-NW 285 0 min 3,9 C 9,1 C
19.09.2012 01:59 9,0 C 70 % 1014,7 hPa 0,0 l/m 0,0 km/h (0 Bft) W-NW 285 0 min 3,8 C 9,0 C
19.09.2012 02:04 8,9 C 71 % 1014,7 hPa 0,0 l/m 0,0 km/h (0 Bft) W-NW 300 0 min 3,9 C 8,9 C
19.09.2012 02:09 8,8 C 71 % 1014,7 hPa 0,0 l/m 0,0 km/h (0 Bft) W-NW 295 0 min 3,8 C 8,8 C
19.09.2012 02:14 8,6 C 71 % 1014,7 hPa 0,0 l/m 0,0 km/h (0 Bft) W-NW 295 0 min 3,6 C 8,6 C
19.09.2012 02:19 8,6 C 72 % 1014,7 hPa 0,0 l/m 0,1 km/h (0 Bft) NW 315 0 min 3,8 C 8,6 C
19.09.2012 02:24 8,6 C 72 % 1014,7 hPa 0,0 l/m 0,0 km/h (0 Bft) W-NW 295 0 min 3,8 C 8,6 C
19.09.2012 02:29 8,4 C 72 % 1014,7 hPa 0,0 l/m 0,0 km/h (0 Bft) W-NW 295 0 min 3,7 C 8,4 C
19.09.2012 02:34 8,3 C 72 % 1014,7 hPa 0,0 l/m 0,0 km/h (0 Bft) W-NW 295 0 min 3,6 C 8,3 C
19.09.2012 02:39 8,2 C 72 % 1014,7 hPa 0,0 l/m 0,0 km/h (0 Bft) NW 310 0 min 3,5 C 8,2 C
19.09.2012 02:44 8,0 C 73 % 1014,7 hPa 0,0 l/m 0,0 km/h (0 Bft) NW 310 0 min 3,5 C 8,0 C
19.09.2012 02:49 7,9 C 74 % 1014,7 hPa 0,0 l/m 0,7 km/h (0 Bft) NW 305 0 min 3,6 C 7,9 C
19.09.2012 02:54 7,7 C 74 % 1014,7 hPa 0,0 l/m 0,0 km/h (0 Bft) W 275 0 min 3,4 C 7,7 C
19.09.2012 02:59 7,7 C 74 % 1014,7 hPa 0,0 l/m 0,1 km/h (0 Bft) W-NW 295 0 min 3,4 C 7,7 C
19.09.2012 03:04 7,6 C 75 % 1014,7 hPa 0,0 l/m 0,1 km/h (0 Bft) NW 305 0 min 3,5 C 7,6 C
19.09.2012 03:09 7,6 C 75 % 1014,7 hPa 0,0 l/m 0,0 km/h (0 Bft) W 265 0 min 3,5 C 7,6 C
19.09.2012 03:14 7,5 C 75 % 1014,7 hPa 0,0 l/m 0,0 km/h (0 Bft) W 265 0 min 3,4 C 7,5 C
19.09.2012 03:19 7,2 C 74 % 1014,7 hPa 0,0 l/m 0,0 km/h (0 Bft) W 270 0 min 2,9 C 7,2 C
19.09.2012 03:24 7,1 C 74 % 1014,7 hPa 0,0 l/m 0,0 km/h (0 Bft) W 265 0 min 2,8 C 7,1 C
19.09.2012 03:29 7,1 C 74 % 1014,7 hPa 0,0 l/m 0,0 km/h (0 Bft) W 260 0 min 2,8 C 7,1 C
19.09.2012 03:34 6,9 C 75 % 1014,7 hPa 0,0 l/m 0,0 km/h (0 Bft) W-SW 255 0 min 2,8 C 6,9 C
19.09.2012 03:39 6,8 C 75 % 1014,7 hPa 0,0 l/m 0,0 km/h (0 Bft) W-SW 255 0 min 2,7 C 6,8 C
19.09.2012 03:45 6,6 C 75 % 1014,7 hPa 0,0 l/m 0,0 km/h (0 Bft) W-SW 255 0 min 2,5 C 6,6 C
19.09.2012 03:49 6,6 C 75 % 1014,7 hPa 0,0 l/m 0,0 km/h (0 Bft) W-SW 255 0 min 2,5 C 6,6 C
19.09.2012 03:55 6,5 C 75 % 1014,7 hPa 0,0 l/m 0,0 km/h (0 Bft) W-SW 255 0 min 2,4 C 6,5 C
19.09.2012 03:59 6,4 C 75 % 1014,7 hPa 0,0 l/m 0,0 km/h (0 Bft) W-SW 255 0 min 2,3 C 6,4 C
19.09.2012 04:04 6,3 C 74 % 1014,7 hPa 0,0 l/m 0,0 km/h (0 Bft) W-SW 255 0 min 2,0 C 6,3 C
19.09.2012 04:10 6,2 C 74 % 1014,7 hPa 0,0 l/m 0,0 km/h (0 Bft) W-SW 255 0 min 1,9 C 6,2 C
19.09.2012 04:14 6,1 C 74 % 1015,7 hPa 0,0 l/m 0,0 km/h (0 Bft) W-SW 255 0 min 1,8 C 6,1 C
19.09.2012 04:20 6,0 C 74 % 1015,7 hPa 0,0 l/m 0,0 km/h (0 Bft) W-SW 255 0 min 1,7 C 6,0 C
19.09.2012 04:24 5,9 C 75 % 1015,7 hPa 0,0 l/m 0,0 km/h (0 Bft) W-SW 255 0 min 1,8 C 5,9 C
19.09.2012 04:29 5,8 C 75 % 1015,7 hPa 0,0 l/m 0,0 km/h (0 Bft) W-SW 255 0 min 1,7 C 5,8 C
19.09.2012 04:34 5,6 C 75 % 1015,7 hPa 0,0 l/m 0,0 km/h (0 Bft) W-SW 255 0 min 1,5 C 5,6 C
19.09.2012 04:39 5,6 C 75 % 1015,7 hPa 0,0 l/m 0,0 km/h (0 Bft) W 260 0 min 1,5 C 5,6 C
19.09.2012 04:45 5,5 C 75 % 1015,7 hPa 0,0 l/m 0,0 km/h (0 Bft) W-SW 255 0 min 1,4 C 5,5 C
19.09.2012 04:49 5,5 C 75 % 1015,7 hPa 0,0 l/m 0,0 km/h (0 Bft) W-SW 255 0 min 1,4 C 5,5 C
19.09.2012 04:54 5,5 C 75 % 1015,7 hPa 0,0 l/m 0,0 km/h (0 Bft) W-SW 255 0 min 1,4 C 5,5 C
19.09.2012 04:59 5,5 C 76 % 1015,7 hPa 0,0 l/m 0,0 km/h (0 Bft) W-SW 255 0 min 1,6 C 5,5 C
19.09.2012 05:04 5,4 C 75 % 1015,7 hPa 0,0 l/m 0,0 km/h (0 Bft) W-SW 255 0 min 1,3 C 5,4 C
19.09.2012 05:10 5,3 C 75 % 1015,7 hPa 0,0 l/m 0,0 km/h (0 Bft) W-SW 255 0 min 1,2 C 5,3 C
19.09.2012 05:14 5,2 C 75 % 1015,7 hPa 0,0 l/m 0,0 km/h (0 Bft) W-SW 255 0 min 1,1 C 5,2 C
19.09.2012 05:19 5,1 C 75 % 1015,7 hPa 0,0 l/m 0,0 km/h (0 Bft) W-SW 255 0 min 1,0 C 5,1 C
19.09.2012 05:24 5,0 C 75 % 1015,7 hPa 0,0 l/m 0,0 km/h (0 Bft) W-SW 255 0 min 0,9 C 5,0 C
19.09.2012 05:29 4,9 C 76 % 1015,7 hPa 0,0 l/m 0,0 km/h (0 Bft) W-SW 255 0 min 1,0 C 4,9 C
19.09.2012 05:35 4,8 C 76 % 1015,7 hPa 0,0 l/m 0,0 km/h (0 Bft) W-SW 255 0 min 0,9 C 4,8 C
19.09.2012 05:39 4,7 C 76 % 1015,7 hPa 0,0 l/m 0,0 km/h (0 Bft) W-SW 255 0 min 0,8 C 4,7 C
19.09.2012 05:44 4,7 C 76 % 1015,7 hPa 0,0 l/m 0,0 km/h (0 Bft) W-SW 255 0 min 0,8 C 4,7 C
19.09.2012 05:49 4,6 C 76 % 1015,7 hPa 0,0 l/m 0,0 km/h (0 Bft) W-SW 255 0 min 0,7 C 4,6 C
19.09.2012 05:54 4,5 C 76 % 1015,7 hPa 0,0 l/m 0,0 km/h (0 Bft) W-SW 255 0 min 0,6 C 4,5 C
19.09.2012 06:00 4,5 C 76 % 1015,7 hPa 0,0 l/m 0,0 km/h (0 Bft) W-SW 255 0 min 0,6 C 4,5 C
19.09.2012 06:04 4,4 C 76 % 1015,7 hPa 0,0 l/m 0,0 km/h (0 Bft) W-SW 255 0 min 0,5 C 4,4 C
19.09.2012 06:10 4,5 C 77 % 1015,7 hPa 0,0 l/m 0,0 km/h (0 Bft) W-SW 255 0 min 0,8 C 4,5 C
19.09.2012 06:14 4,5 C 77 % 1015,7 hPa 0,0 l/m 0,0 km/h (0 Bft) W-SW 255 0 min 0,8 C 4,5 C
19.09.2012 06:19 4,5 C 77 % 1015,7 hPa 0,0 l/m 0,0 km/h (0 Bft) W-SW 255 0 min 0,8 C 4,5 C
19.09.2012 06:25 4,5 C 77 % 1015,7 hPa 0,0 l/m 0,3 km/h (0 Bft) W 265 0 min 0,8 C 4,5 C
19.09.2012 06:29 4,5 C 77 % 1015,7 hPa 0,0 l/m 2,4 km/h (1 Bft) W-NW 290 0 min 0,8 C 4,5 C
19.09.2012 06:35 4,5 C 78 % 1015,7 hPa 0,0 l/m 5,4 km/h (1 Bft) W-NW 285 0 min 1,0 C 4,5 C
19.09.2012 06:39 4,6 C 78 % 1015,7 hPa 0,0 l/m 0,0 km/h (0 Bft) W-NW 290 0 min 1,1 C 4,6 C
19.09.2012 06:44 4,6 C 78 % 1015,7 hPa 0,0 l/m 0,0 km/h (0 Bft) W-NW 285 0 min 1,1 C 4,6 C
19.09.2012 06:49 4,7 C 79 % 1015,7 hPa 0,0 l/m 0,0 km/h (0 Bft) W 275 0 min 1,4 C 4,7 C
19.09.2012 06:54 4,7 C 79 % 1015,7 hPa 0,0 l/m 0,0 km/h (0 Bft) W 275 0 min 1,4 C 4,7 C
19.09.2012 07:00 4,7 C 79 % 1016,7 hPa 0,0 l/m 0,0 km/h (0 Bft) W 275 0 min 1,4 C 4,7 C
19.09.2012 07:04 4,7 C 79 % 1015,7 hPa 0,0 l/m 0,0 km/h (0 Bft) W 270 0 min 1,4 C 4,7 C
19.09.2012 07:09 4,7 C 79 % 1015,7 hPa 0,0 l/m 0,0 km/h (0 Bft) W 270 0 min 1,4 C 4,7 C
19.09.2012 07:14 4,7 C 79 % 1015,7 hPa 0,0 l/m 0,0 km/h (0 Bft) W 270 0 min 1,4 C 4,7 C
19.09.2012 07:19 4,7 C 79 % 1016,7 hPa 0,0 l/m 0,0 km/h (0 Bft) W 270 0 min 1,4 C 4,7 C
19.09.2012 07:24 4,6 C 78 % 1016,7 hPa 0,0 l/m 0,0 km/h (0 Bft) W 270 0 min 1,1 C 4,6 C
19.09.2012 07:30 4,5 C 78 % 1015,7 hPa 0,0 l/m 0,0 km/h (0 Bft) W 270 0 min 1,0 C 4,5 C
19.09.2012 07:35 4,4 C 78 % 1015,7 hPa 0,0 l/m 0,0 km/h (0 Bft) W 270 0 min 0,9 C 4,4 C
19.09.2012 07:39 4,4 C 78 % 1016,7 hPa 0,0 l/m 0,0 km/h (0 Bft) W 270 0 min 0,9 C 4,4 C
19.09.2012 07:44 5,0 C 80 % 1016,7 hPa 0,0 l/m 0,0 km/h (0 Bft) W 270 0 min 1,8 C 5,0 C
19.09.2012 07:49 5,6 C 81 % 1016,7 hPa 0,0 l/m 0,0 km/h (0 Bft) W 270 0 min 2,6 C 5,6 C
19.09.2012 07:54 5,7 C 81 % 1016,7 hPa 0,0 l/m 0,0 km/h (0 Bft) W 270 0 min 2,7 C 5,7 C
19.09.2012 07:59 5,7 C 79 % 1016,7 hPa 0,0 l/m 0,0 km/h (0 Bft) W 270 0 min 2,3 C 5,7 C
19.09.2012 08:04 5,8 C 78 % 1016,7 hPa 0,0 l/m 0,0 km/h (0 Bft) W 270 0 min 2,3 C 5,8 C
19.09.2012 08:09 5,8 C 78 % 1016,7 hPa 0,0 l/m 0,0 km/h (0 Bft) W 270 0 min 2,3 C 5,8 C
19.09.2012 08:15 5,9 C 78 % 1016,7 hPa 0,0 l/m 0,0 km/h (0 Bft) W 270 0 min 2,4 C 5,9 C
19.09.2012 08:20 5,9 C 78 % 1016,7 hPa 0,0 l/m 0,2 km/h (0 Bft) W 270 0 min 2,4 C 5,9 C
19.09.2012 08:24 6,0 C 77 % 1016,7 hPa 0,0 l/m 0,3 km/h (0 Bft) W-SW 250 0 min 2,3 C 6,0 C
19.09.2012 08:29 6,2 C 77 % 1016,7 hPa 0,0 l/m 0,1 km/h (0 Bft) W 260 0 min 2,5 C 6,2 C
19.09.2012 08:35 6,5 C 78 % 1016,7 hPa 0,0 l/m 0,0 km/h (0 Bft) W 260 0 min 2,9 C 6,5 C
19.09.2012 08:39 6,9 C 78 % 1016,7 hPa 0,0 l/m 0,0 km/h (0 Bft) W-SW 255 0 min 3,3 C 6,9 C
19.09.2012 08:44 7,1 C 77 % 1016,7 hPa 0,0 l/m 0,0 km/h (0 Bft) W-SW 245 0 min 3,3 C 7,1 C
19.09.2012 08:49 7,3 C 77 % 1016,7 hPa 0,0 l/m 0,0 km/h (0 Bft) W-SW 250 0 min 3,5 C 7,3 C
19.09.2012 08:54 7,6 C 78 % 1016,7 hPa 0,0 l/m 0,1 km/h (0 Bft) W-SW 250 0 min 4,0 C 7,6 C
19.09.2012 08:59 7,6 C 78 % 1016,7 hPa 0,0 l/m 0,3 km/h (0 Bft) W 260 0 min 4,0 C 7,6 C
19.09.2012 09:05 8,0 C 77 % 1016,7 hPa 0,0 l/m 0,7 km/h (0 Bft) W-SW 255 0 min 4,2 C 8,0 C
19.09.2012 09:09 8,5 C 78 % 1016,7 hPa 0,0 l/m 0,7 km/h (0 Bft) W-SW 255 0 min 4,9 C 8,5 C
19.09.2012 09:14 8,8 C 78 % 1016,7 hPa 0,0 l/m 0,1 km/h (0 Bft) W 260 0 min 5,2 C 8,8 C
19.09.2012 09:19 9,3 C 77 % 1016,7 hPa 0,0 l/m 0,3 km/h (0 Bft) W 260 0 min 5,5 C 9,3 C
19.09.2012 09:24 9,5 C 76 % 1016,7 hPa 0,0 l/m 6,3 km/h (2 Bft) W 260 0 min 5,5 C 9,5 C
19.09.2012 09:29 9,8 C 76 % 1016,7 hPa 0,0 l/m 7,9 km/h (2 Bft) W 270 0 min 5,8 C 8,7 C
19.09.2012 09:34 9,9 C 76 % 1016,7 hPa 0,0 l/m 7,9 km/h (2 Bft) W-NW 285 0 min 5,9 C 8,8 C
19.09.2012 09:39 10,3 C 74 % 1016,7 hPa 0,0 l/m 7,4 km/h (2 Bft) W-NW 285 0 min 5,9 C 9,6 C
19.09.2012 09:44 10,8 C 74 % 1016,7 hPa 0,0 l/m 1,5 km/h (1 Bft) W 260 0 min 6,4 C 10,8 C
19.09.2012 09:49 11,0 C 73 % 1017,7 hPa 0,0 l/m 9,6 km/h (2 Bft) NW 315 0 min 6,4 C 8,9 C
19.09.2012 09:54 11,2 C 72 % 1017,7 hPa 0,0 l/m 10,2 km/h (2 Bft) W-NW 290 0 min 6,3 C 8,8 C
19.09.2012 09:59 11,5 C 71 % 1017,7 hPa 0,0 l/m 13,8 km/h (3 Bft) N-NW 340 0 min 6,4 C 7,4 C
19.09.2012 10:04 11,6 C 70 % 1017,7 hPa 0,0 l/m 12,5 km/h (3 Bft) NW 315 0 min 6,3 C 8,1 C
19.09.2012 10:09 11,8 C 70 % 1017,7 hPa 0,0 l/m 9,6 km/h (2 Bft) NW 305 0 min 6,5 C 9,8 C
19.09.2012 10:14 12,2 C 68 % 1017,7 hPa 0,0 l/m 11,3 km/h (2 Bft) W-NW 295 0 min 6,5 C 9,4 C
19.09.2012 10:20 12,3 C 68 % 1017,7 hPa 0,0 l/m 17,0 km/h (3 Bft) N-NW 340 0 min 6,6 C 7,2 C
19.09.2012 10:24 12,6 C 66 % 1017,7 hPa 0,0 l/m 8,1 km/h (2 Bft) N-NW 340 0 min 6,4 C 11,5 C
19.09.2012 10:29 12,5 C 64 % 1017,7 hPa 0,0 l/m 22,0 km/h (4 Bft) N 350 0 min 5,9 C 6,0 C
19.09.2012 10:34 12,3 C 63 % 1017,7 hPa 0,0 l/m 27,7 km/h (4 Bft) N 350 0 min 5,5 C 4,4 C
19.09.2012 10:39 12,5 C 64 % 1017,7 hPa 0,0 l/m 21,1 km/h (4 Bft) N-NW 345 0 min 5,9 C 6,2 C
19.09.2012 10:44 12,4 C 64 % 1017,7 hPa 0,0 l/m 17,2 km/h (3 Bft) N-NW 345 0 min 5,8 C 7,3 C
19.09.2012 10:50 12,5 C 64 % 1017,7 hPa 0,0 l/m 14,6 km/h (3 Bft) NW 310 0 min 5,9 C 8,3 C
19.09.2012 10:55 12,5 C 64 % 1017,7 hPa 0,0 l/m 9,9 km/h (2 Bft) W-NW 295 0 min 5,9 C 10,4 C
19.09.2012 10:59 12,8 C 62 % 1017,7 hPa 0,0 l/m 15,8 km/h (3 Bft) N 350 0 min 5,7 C 8,2 C
19.09.2012 11:04 13,1 C 62 % 1017,7 hPa 0,0 l/m 16,8 km/h (3 Bft) N-NW 340 0 min 6,0 C 8,3 C
19.09.2012 11:09 13,4 C 61 % 1017,7 hPa 0,0 l/m 20,0 km/h (4 Bft) N-NW 345 0 min 6,0 C 7,7 C
19.09.2012 11:14 13,2 C 57 % 1017,7 hPa 0,0 l/m 21,1 km/h (4 Bft) N-NW 340 0 min 4,9 C 7,1 C
19.09.2012 11:19 12,7 C 58 % 1017,7 hPa 0,0 l/m 19,6 km/h (3 Bft) N 350 0 min 4,7 C 6,9 C
19.09.2012 11:25 12,6 C 58 % 1017,7 hPa 0,0 l/m 23,5 km/h (4 Bft) N-NW 345 0 min 4,6 C 5,7 C
19.09.2012 11:30 12,7 C 58 % 1017,7 hPa 0,0 l/m 22,4 km/h (4 Bft) N-NW 345 0 min 4,7 C 6,1 C
19.09.2012 11:34 12,9 C 59 % 1017,7 hPa 0,0 l/m 18,7 km/h (3 Bft) N-NW 340 0 min 5,1 C 7,4 C
19.09.2012 11:39 12,7 C 58 % 1017,7 hPa 0,0 l/m 16,9 km/h (3 Bft) N-NW 345 0 min 4,7 C 7,7 C
19.09.2012 11:44 12,7 C 59 % 1017,7 hPa 0,0 l/m 27,1 km/h (4 Bft) N-NW 345 0 min 4,9 C 5,0 C
19.09.2012 11:50 13,7 C 59 % 1017,7 hPa 0,0 l/m 16,0 km/h (3 Bft) N-NW 330 0 min 5,8 C 9,3 C
19.09.2012 11:55 14,7 C 55 % 1017,7 hPa 0,0 l/m 18,2 km/h (3 Bft) N-NW 335 0 min 5,8 C 9,8 C
19.09.2012 12:00 14,5 C 53 % 1017,7 hPa 0,0 l/m 25,6 km/h (4 Bft) N-NW 345 0 min 5,0 C 7,8 C
19.09.2012 12:05 13,9 C 54 % 1018,7 hPa 0,0 l/m 30,0 km/h (5 Bft) N 350 0 min 4,7 C 6,1 C
19.09.2012 12:10 13,5 C 54 % 1018,7 hPa 0,0 l/m 24,3 km/h (4 Bft) N 350 0 min 4,4 C 6,7 C
19.09.2012 12:15 13,4 C 54 % 1018,7 hPa 0,0 l/m 19,3 km/h (3 Bft) N 350 0 min 4,3 C 7,9 C
19.09.2012 12:20 13,3 C 55 % 1018,7 hPa 0,0 l/m 19,5 km/h (3 Bft) N 350 0 min 4,5 C 7,7 C
19.09.2012 12:25 13,3 C 55 % 1018,7 hPa 0,0 l/m 15,1 km/h (3 Bft) NW 320 0 min 4,5 C 9,1 C
19.09.2012 12:30 13,0 C 54 % 1018,7 hPa 0,0 l/m 18,7 km/h (3 Bft) N 350 0 min 3,9 C 7,5 C
19.09.2012 12:35 12,9 C 55 % 1018,7 hPa 0,0 l/m 16,0 km/h (3 Bft) N-NW 345 0 min 4,1 C 8,3 C
19.09.2012 12:40 12,6 C 55 % 1018,7 hPa 0,0 l/m 27,1 km/h (4 Bft) N 350 0 min 3,8 C 4,9 C
19.09.2012 12:45 12,2 C 55 % 1018,7 hPa 0,0 l/m 28,5 km/h (4 Bft) N 350 0 min 3,4 C 4,0 C
19.09.2012 12:50 12,1 C 55 % 1018,7 hPa 0,0 l/m 25,9 km/h (4 Bft) N 350 0 min 3,3 C 4,5 C
19.09.2012 12:55 12,2 C 56 % 1018,7 hPa 0,0 l/m 26,1 km/h (4 Bft) N 350 0 min 3,7 C 4,6 C
19.09.2012 13:00 12,8 C 57 % 1018,7 hPa 0,0 l/m 13,6 km/h (3 Bft) N-NW 330 0 min 4,5 C 9,1 C
19.09.2012 13:05 13,3 C 56 % 1018,7 hPa 0,0 l/m 8,1 km/h (2 Bft) N-NW 330 0 min 4,7 C 12,3 C
19.09.2012 13:10 13,4 C 55 % 1018,7 hPa 0,0 l/m 8,1 km/h (2 Bft) N-NW 330 0 min 4,5 C 12,4 C
19.09.2012 13:15 13,7 C 53 % 1018,7 hPa 0,0 l/m 21,0 km/h (4 Bft) NW 325 0 min 4,3 C 7,8 C
19.09.2012 13:20 13,7 C 53 % 1018,7 hPa 0,0 l/m 21,1 km/h (4 Bft) N-NW 345 0 min 4,3 C 7,8 C
19.09.2012 13:25 13,5 C 53 % 1018,7 hPa 0,0 l/m 20,5 km/h (4 Bft) N-NW 335 0 min 4,1 C 7,7 C
19.09.2012 13:30 13,4 C 52 % 1018,7 hPa 0,0 l/m 19,2 km/h (3 Bft) N-NW 345 0 min 3,7 C 7,9 C
19.09.2012 13:34 14,1 C 54 % 1018,7 hPa 0,0 l/m 15,0 km/h (3 Bft) N-NW 330 0 min 4,9 C 10,1 C
19.09.2012 13:39 14,7 C 54 % 1018,7 hPa 0,0 l/m 3,9 km/h (1 Bft) N-NW 330 0 min 5,5 C 14,7 C
19.09.2012 13:44 15,0 C 50 % 1018,7 hPa 0,0 l/m 12,4 km/h (3 Bft) NW 325 0 min 4,7 C 12,1 C
19.09.2012 13:49 13,9 C 50 % 1018,7 hPa 0,0 l/m 15,4 km/h (3 Bft) N-NW 340 0 min 3,7 C 9,7 C
19.09.2012 13:54 13,5 C 51 % 1018,7 hPa 0,0 l/m 21,8 km/h (4 Bft) N-NW 340 0 min 3,6 C 7,3 C
19.09.2012 13:59 12,9 C 53 % 1018,7 hPa 0,0 l/m 15,7 km/h (3 Bft) N-NW 335 0 min 3,6 C 8,4 C
19.09.2012 14:04 12,8 C 53 % 1018,7 hPa 0,0 l/m 8,4 km/h (2 Bft) NW 325 0 min 3,5 C 11,6 C
19.09.2012 14:09 12,8 C 53 % 1018,7 hPa 0,0 l/m 20,1 km/h (4 Bft) N-NW 340 0 min 3,5 C 6,9 C
19.09.2012 14:14 14,5 C 47 % 1018,7 hPa 0,0 l/m 24,0 km/h (4 Bft) N 350 0 min 3,3 C 8,1 C
19.09.2012 14:19 14,5 C 47 % 1018,7 hPa 0,0 l/m 15,5 km/h (3 Bft) NW 305 0 min 3,3 C 10,4 C
19.09.2012 14:24 14,9 C 47 % 1018,7 hPa 0,0 l/m 17,5 km/h (3 Bft) N-NW 340 0 min 3,7 C 10,3 C
19.09.2012 14:29 15,8 C 47 % 1018,7 hPa 0,0 l/m 12,1 km/h (2 Bft) NW 315 0 min 4,5 C 13,2 C
19.09.2012 14:34 16,2 C 42 % 1018,7 hPa 0,0 l/m 12,8 km/h (3 Bft) N-NW 330 0 min 3,3 C 13,4 C
19.09.2012 14:39 16,2 C 42 % 1018,7 hPa 0,0 l/m 20,6 km/h (4 Bft) N-NW 335 0 min 3,3 C 11,2 C
19.09.2012 14:44 16,1 C 41 % 1018,7 hPa 0,0 l/m 23,9 km/h (4 Bft) N 350 0 min 2,8 C 10,3 C
19.09.2012 14:49 15,5 C 41 % 1018,7 hPa 0,0 l/m 28,6 km/h (4 Bft) N-NW 345 0 min 2,3 C 8,6 C
19.09.2012 14:54 14,9 C 43 % 1018,7 hPa 0,0 l/m 23,2 km/h (4 Bft) N-NW 345 0 min 2,4 C 8,9 C
19.09.2012 14:59 14,8 C 45 % 1018,7 hPa 0,0 l/m 22,8 km/h (4 Bft) N-NW 345 0 min 3,0 C 8,8 C
19.09.2012 15:04 14,7 C 42 % 1018,7 hPa 0,0 l/m 25,0 km/h (4 Bft) N-NW 345 0 min 1,9 C 8,2 C
19.09.2012 15:09 14,4 C 42 % 1018,7 hPa 0,0 l/m 15,8 km/h (3 Bft) N-NW 335 0 min 1,7 C 10,2 C
19.09.2012 15:14 14,4 C 42 % 1018,7 hPa 0,0 l/m 18,1 km/h (3 Bft) N-NW 340 0 min 1,7 C 9,5 C
19.09.2012 15:19 14,8 C 43 % 1018,7 hPa 0,0 l/m 22,2 km/h (4 Bft) N-NW 340 0 min 2,3 C 8,9 C
19.09.2012 15:24 15,8 C 40 % 1018,7 hPa 0,0 l/m 19,7 km/h (3 Bft) N-NW 330 0 min 2,2 C 10,9 C
19.09.2012 15:29 15,9 C 37 % 1018,7 hPa 0,0 l/m 18,0 km/h (3 Bft) N-NW 340 0 min 1,2 C 11,4 C
19.09.2012 15:34 15,6 C 38 % 1018,7 hPa 0,0 l/m 19,2 km/h (3 Bft) N-NW 345 0 min 1,3 C 10,7 C
19.09.2012 15:39 15,1 C 40 % 1018,7 hPa 0,0 l/m 18,3 km/h (3 Bft) N-NW 340 0 min 1,6 C 10,3 C
19.09.2012 15:44 15,3 C 41 % 1018,7 hPa 0,0 l/m 21,6 km/h (4 Bft) N-NW 340 0 min 2,1 C 9,7 C
19.09.2012 15:49 15,1 C 41 % 1018,7 hPa 0,0 l/m 13,0 km/h (3 Bft) N-NW 335 0 min 2,0 C 12,0 C
19.09.2012 15:54 14,5 C 42 % 1018,7 hPa 0,0 l/m 18,5 km/h (3 Bft) N-NW 335 0 min 1,7 C 9,5 C
19.09.2012 15:59 14,8 C 44 % 1018,7 hPa 0,0 l/m 15,4 km/h (3 Bft) N-NW 335 0 min 2,7 C 10,8 C
19.09.2012 16:04 14,8 C 44 % 1018,7 hPa 0,0 l/m 16,8 km/h (3 Bft) NW 310 0 min 2,7 C 10,4 C
19.09.2012 16:09 16,1 C 41 % 1018,7 hPa 0,0 l/m 17,8 km/h (3 Bft) N-NW 340 0 min 2,8 C 11,7 C
19.09.2012 16:14 16,4 C 38 % 1018,7 hPa 0,0 l/m 19,1 km/h (3 Bft) N-NW 340 0 min 2,1 C 11,8 C
19.09.2012 16:19 16,4 C 36 % 1018,7 hPa 0,0 l/m 29,8 km/h (5 Bft) N-NW 345 0 min 1,3 C 9,7 C
19.09.2012 16:24 15,9 C 37 % 1018,7 hPa 0,0 l/m 23,2 km/h (4 Bft) N-NW 340 0 min 1,2 C 10,2 C
19.09.2012 16:29 15,9 C 39 % 1018,7 hPa 0,0 l/m 20,0 km/h (4 Bft) N-NW 345 0 min 2,0 C 10,9 C
19.09.2012 16:34 15,4 C 41 % 1018,7 hPa 0,0 l/m 20,0 km/h (4 Bft) N-NW 340 0 min 2,2 C 10,3 C
19.09.2012 16:39 15,1 C 41 % 1018,7 hPa 0,0 l/m 12,3 km/h (3 Bft) N-NW 330 0 min 2,0 C 12,3 C
19.09.2012 16:44 14,4 C 43 % 1018,7 hPa 0,0 l/m 21,6 km/h (4 Bft) N 350 0 min 2,0 C 8,6 C
19.09.2012 16:49 14,1 C 45 % 1018,7 hPa 0,0 l/m 21,9 km/h (4 Bft) N-NW 340 0 min 2,4 C 8,1 C
19.09.2012 16:54 14,1 C 45 % 1018,7 hPa 0,0 l/m 15,5 km/h (3 Bft) N-NW 340 0 min 2,4 C 9,9 C
19.09.2012 16:59 14,6 C 47 % 1018,7 hPa 0,0 l/m 7,7 km/h (2 Bft) NW 315 0 min 3,4 C 13,8 C
19.09.2012 17:04 14,8 C 47 % 1018,7 hPa 0,0 l/m 7,7 km/h (2 Bft) NW 315 0 min 3,6 C 14,1 C
19.09.2012 17:09 15,8 C 45 % 1018,7 hPa 0,0 l/m 21,3 km/h (4 Bft) N-NW 335 0 min 3,9 C 10,5 C
19.09.2012 17:14 16,1 C 43 % 1018,7 hPa 0,0 l/m 13,9 km/h (3 Bft) W 280 0 min 3,5 C 12,9 C
19.09.2012 17:19 15,7 C 42 % 1018,7 hPa 0,0 l/m 17,8 km/h (3 Bft) N-NW 340 0 min 2,8 C 11,2 C
19.09.2012 17:24 14,7 C 41 % 1018,7 hPa 0,0 l/m 29,6 km/h (5 Bft) N-NW 345 0 min 1,6 C 7,3 C
19.09.2012 17:29 14,4 C 42 % 1019,7 hPa 0,0 l/m 35,4 km/h (5 Bft) N-NW 340 0 min 1,7 C 6,0 C
19.09.2012 17:34 13,8 C 43 % 1019,7 hPa 0,0 l/m 30,3 km/h (5 Bft) N-NW 340 0 min 1,4 C 5,9 C
19.09.2012 17:39 13,8 C 45 % 1019,7 hPa 0,0 l/m 25,9 km/h (4 Bft) N-NW 340 0 min 2,1 C 6,8 C
19.09.2012 17:44 13,8 C 45 % 1019,7 hPa 0,0 l/m 17,7 km/h (3 Bft) NW 325 0 min 2,1 C 8,9 C
19.09.2012 17:49 13,4 C 46 % 1019,7 hPa 0,0 l/m 13,3 km/h (3 Bft) NW 315 0 min 2,0 C 9,9 C
19.09.2012 17:54 13,2 C 46 % 1019,7 hPa 0,0 l/m 0,0 km/h (0 Bft) NW 320 0 min 1,8 C 13,2 C
19.09.2012 18:00 13,0 C 46 % 1019,7 hPa 0,0 l/m 4,4 km/h (1 Bft) W 280 0 min 1,7 C 13,0 C
19.09.2012 18:04 12,4 C 47 % 1019,7 hPa 0,0 l/m 9,5 km/h (2 Bft) NW 325 0 min 1,4 C 10,5 C
19.09.2012 18:09 12,0 C 48 % 1019,7 hPa 0,0 l/m 4,7 km/h (1 Bft) NW 305 0 min 1,3 C 12,0 C
19.09.2012 18:14 11,9 C 49 % 1019,7 hPa 0,0 l/m 11,5 km/h (2 Bft) NW 315 0 min 1,5 C 8,9 C
19.09.2012 18:19 11,0 C 56 % 1020,7 hPa 1,4 l/m 25,6 km/h (4 Bft) N-NW 335 0 min 2,6 C 3,0 C
19.09.2012 18:24 9,8 C 62 % 1020,7 hPa 1,1 l/m 21,3 km/h (4 Bft) N-NW 340 0 min 2,9 C 2,6 C
19.09.2012 18:30 10,3 C 63 % 1019,7 hPa 0,4 l/m 7,9 km/h (2 Bft) N-NW 335 0 min 3,6 C 9,2 C
19.09.2012 18:34 10,5 C 62 % 1019,7 hPa 0,0 l/m 0,0 km/h (0 Bft) NW 320 0 min 3,5 C 10,5 C
19.09.2012 18:39 10,4 C 61 % 1019,7 hPa 0,0 l/m 0,0 km/h (0 Bft) W-NW 300 0 min 3,2 C 10,4 C
19.09.2012 18:44 10,1 C 61 % 1019,7 hPa 0,0 l/m 0,7 km/h (0 Bft) W-NW 285 0 min 2,9 C 10,1 C
19.09.2012 18:49 9,9 C 62 % 1019,7 hPa 0,0 l/m 0,0 km/h (0 Bft) W 270 0 min 3,0 C 9,9 C
19.09.2012 18:55 9,6 C 62 % 1019,7 hPa 0,0 l/m 0,0 km/h (0 Bft) W 270 0 min 2,7 C 9,6 C
19.09.2012 19:00 9,5 C 62 % 1019,7 hPa 0,0 l/m 0,0 km/h (0 Bft) W 270 0 min 2,6 C 9,5 C
19.09.2012 19:04 9,3 C 62 % 1019,7 hPa 0,0 l/m 0,0 km/h (0 Bft) W 270 0 min 2,4 C 9,3 C
19.09.2012 19:09 9,0 C 62 % 1019,7 hPa 0,0 l/m 0,0 km/h (0 Bft) W 270 0 min 2,1 C 9,0 C
19.09.2012 19:14 8,6 C 63 % 1019,7 hPa 0,0 l/m 0,0 km/h (0 Bft) W 270 0 min 2,0 C 8,6 C
19.09.2012 19:19 8,4 C 63 % 1019,7 hPa 0,0 l/m 0,0 km/h (0 Bft) W 270 0 min 1,8 C 8,4 C
19.09.2012 19:24 8,2 C 63 % 1019,7 hPa 0,0 l/m 0,0 km/h (0 Bft) W 270 0 min 1,6 C 8,2 C
19.09.2012 19:30 7,9 C 64 % 1019,7 hPa 0,0 l/m 0,0 km/h (0 Bft) W 270 0 min 1,5 C 7,9 C
19.09.2012 19:35 7,6 C 64 % 1019,7 hPa 0,0 l/m 0,0 km/h (0 Bft) W 270 0 min 1,2 C 7,6 C
19.09.2012 19:39 7,6 C 64 % 1019,7 hPa 0,0 l/m 0,0 km/h (0 Bft) W 270 0 min 1,2 C 7,6 C
19.09.2012 19:44 7,2 C 64 % 1019,7 hPa 0,0 l/m 0,0 km/h (0 Bft) W 270 0 min 0,9 C 7,2 C
19.09.2012 19:49 7,1 C 65 % 1019,7 hPa 0,0 l/m 0,0 km/h (0 Bft) W 270 0 min 1,0 C 7,1 C
19.09.2012 19:54 6,9 C 66 % 1019,7 hPa 0,0 l/m 0,0 km/h (0 Bft) W 270 0 min 1,0 C 6,9 C
19.09.2012 20:00 6,8 C 66 % 1020,7 hPa 0,0 l/m 0,0 km/h (0 Bft) W 270 0 min 0,9 C 6,8 C
19.09.2012 20:05 6,7 C 67 % 1020,7 hPa 0,0 l/m 0,0 km/h (0 Bft) W 270 0 min 1,0 C 6,7 C
19.09.2012 20:09 6,6 C 67 % 1020,7 hPa 0,0 l/m 0,0 km/h (0 Bft) W 270 0 min 0,9 C 6,6 C
19.09.2012 20:14 6,5 C 67 % 1020,7 hPa 0,0 l/m 0,0 km/h (0 Bft) W 270 0 min 0,8 C 6,5 C
19.09.2012 20:19 6,4 C 67 % 1020,7 hPa 0,0 l/m 0,0 km/h (0 Bft) W 270 0 min 0,7 C 6,4 C
19.09.2012 20:24 6,4 C 68 % 1020,7 hPa 0,0 l/m 0,0 km/h (0 Bft) W 270 0 min 0,9 C 6,4 C
19.09.2012 20:29 6,3 C 68 % 1020,7 hPa 0,0 l/m 0,0 km/h (0 Bft) W 270 0 min 0,8 C 6,3 C
19.09.2012 20:34 6,2 C 68 % 1020,7 hPa 0,0 l/m 0,0 km/h (0 Bft) W 270 0 min 0,7 C 6,2 C
19.09.2012 20:39 6,1 C 68 % 1020,7 hPa 0,0 l/m 0,0 km/h (0 Bft) W 270 0 min 0,6 C 6,1 C
19.09.2012 20:44 6,2 C 68 % 1020,7 hPa 0,0 l/m 0,0 km/h (0 Bft) W 270 0 min 0,7 C 6,2 C
19.09.2012 20:49 6,2 C 69 % 1021,7 hPa 0,0 l/m 11,5 km/h (2 Bft) NW 315 0 min 0,9 C 2,4 C
19.09.2012 20:54 6,7 C 79 % 1021,7 hPa 0,0 l/m 16,5 km/h (3 Bft) N-NW 330 0 min 3,3 C 0,4 C
19.09.2012 20:59 6,9 C 81 % 1021,7 hPa 0,0 l/m 20,1 km/h (4 Bft) N-NW 340 0 min 3,9 C -0,8 C
19.09.2012 21:04 7,0 C 83 % 1021,7 hPa 0,4 l/m 13,6 km/h (3 Bft) NW 315 0 min 4,3 C 2,2 C
19.09.2012 21:09 7,1 C 84 % 1021,7 hPa 0,0 l/m 11,6 km/h (2 Bft) NW 320 0 min 4,6 C 3,4 C
19.09.2012 21:14 7,1 C 84 % 1021,7 hPa 0,7 l/m 14,8 km/h (3 Bft) NW 305 0 min 4,6 C 1,7 C
19.09.2012 21:19 7,1 C 83 % 1021,7 hPa 0,0 l/m 0,1 km/h (0 Bft) S 185 0 min 4,4 C 7,1 C
19.09.2012 21:24 7,1 C 82 % 1021,7 hPa 0,0 l/m 0,1 km/h (0 Bft) S-SW 205 0 min 4,2 C 7,1 C
19.09.2012 21:29 7,0 C 81 % 1021,7 hPa 0,0 l/m 0,0 km/h (0 Bft) S-SO 165 0 min 4,0 C 7,0 C
19.09.2012 21:34 7,0 C 81 % 1021,7 hPa 0,0 l/m 0,0 km/h (0 Bft) S-SO 155 0 min 4,0 C 7,0 C
19.09.2012 21:39 6,8 C 80 % 1021,7 hPa 0,0 l/m 0,0 km/h (0 Bft) S 170 0 min 3,6 C 6,8 C
19.09.2012 21:44 6,6 C 79 % 1021,7 hPa 0,0 l/m 0,0 km/h (0 Bft) S-SO 155 0 min 3,2 C 6,6 C
19.09.2012 21:49 6,5 C 79 % 1021,7 hPa 0,0 l/m 0,0 km/h (0 Bft) S-SO 165 0 min 3,1 C 6,5 C
19.09.2012 21:54 6,4 C 79 % 1021,7 hPa 0,0 l/m 0,0 km/h (0 Bft) S 170 0 min 3,0 C 6,4 C
19.09.2012 21:59 6,0 C 78 % 1021,7 hPa 0,0 l/m 0,0 km/h (0 Bft) S-SO 160 0 min 2,5 C 6,0 C
19.09.2012 22:04 6,0 C 78 % 1021,7 hPa 0,0 l/m 0,0 km/h (0 Bft) S-SO 160 0 min 2,5 C 6,0 C
19.09.2012 22:10 5,8 C 78 % 1021,7 hPa 0,0 l/m 0,0 km/h (0 Bft) S 175 0 min 2,3 C 5,8 C
19.09.2012 22:15 5,7 C 78 % 1021,7 hPa 0,0 l/m 0,0 km/h (0 Bft) S-SO 155 0 min 2,2 C 5,7 C
19.09.2012 22:20 5,6 C 78 % 1021,7 hPa 0,0 l/m 0,0 km/h (0 Bft) S 180 0 min 2,1 C 5,6 C
19.09.2012 22:25 5,5 C 78 % 1021,7 hPa 0,0 l/m 0,0 km/h (0 Bft) S 180 0 min 2,0 C 5,5 C
19.09.2012 22:30 5,4 C 77 % 1021,7 hPa 0,0 l/m 0,0 km/h (0 Bft) S-SO 165 0 min 1,7 C 5,4 C
19.09.2012 22:35 5,3 C 77 % 1021,7 hPa 0,0 l/m 0,0 km/h (0 Bft) S-SO 165 0 min 1,6 C 5,3 C
19.09.2012 22:40 5,3 C 77 % 1021,7 hPa 0,0 l/m 0,0 km/h (0 Bft) S-SO 155 0 min 1,6 C 5,3 C
19.09.2012 22:45 5,3 C 77 % 1021,7 hPa 0,0 l/m 0,0 km/h (0 Bft) S-SO 155 0 min 1,6 C 5,3 C
19.09.2012 22:50 5,2 C 77 % 1021,7 hPa 0,0 l/m 0,0 km/h (0 Bft) S-SO 165 0 min 1,5 C 5,2 C
19.09.2012 22:55 5,2 C 77 % 1021,7 hPa 0,0 l/m 0,0 km/h (0 Bft) S-SO 160 0 min 1,5 C 5,2 C
19.09.2012 23:00 5,2 C 77 % 1021,7 hPa 0,0 l/m 0,0 km/h (0 Bft) S-SO 160 0 min 1,5 C 5,2 C
19.09.2012 23:05 5,1 C 77 % 1021,7 hPa 0,0 l/m 0,0 km/h (0 Bft) S-SO 155 0 min 1,4 C 5,1 C
19.09.2012 23:10 5,2 C 77 % 1021,7 hPa 0,0 l/m 0,0 km/h (0 Bft) S-SO 160 0 min 1,5 C 5,2 C
19.09.2012 23:15 5,2 C 77 % 1021,7 hPa 0,0 l/m 0,0 km/h (0 Bft) S-SO 155 0 min 1,5 C 5,2 C
19.09.2012 23:20 5,3 C 77 % 1021,7 hPa 0,0 l/m 0,0 km/h (0 Bft) S-SO 155 0 min 1,6 C 5,3 C
19.09.2012 23:25 5,2 C 77 % 1021,7 hPa 0,0 l/m 0,0 km/h (0 Bft) S-SO 150 0 min 1,5 C 5,2 C
19.09.2012 23:30 5,2 C 77 % 1021,7 hPa 0,0 l/m 0,0 km/h (0 Bft) S-SO 150 0 min 1,5 C 5,2 C
19.09.2012 23:35 5,2 C 77 % 1021,7 hPa 0,0 l/m 0,0 km/h (0 Bft) S-SO 150 0 min 1,5 C 5,2 C
19.09.2012 23:40 5,1 C 77 % 1021,7 hPa 0,0 l/m 0,0 km/h (0 Bft) S 175 0 min 1,4 C 5,1 C
19.09.2012 23:45 5,1 C 77 % 1021,7 hPa 0,0 l/m 0,0 km/h (0 Bft) S 170 0 min 1,4 C 5,1 C
19.09.2012 23:50 5,0 C 77 % 1021,7 hPa 0,0 l/m 0,0 km/h (0 Bft) S-SO 160 0 min 1,3 C 5,0 C
19.09.2012 23:55 5,0 C 77 % 1021,7 hPa 0,0 l/m 0,0 km/h (0 Bft) S-SO 155 0 min 1,3 C 5,0 C
_ Min-Zeit 00:00 16:19 00:00 - 00:00 - - - 06:04 20:59
Minimum _ 0,0 C 36 % 1013,7 hPa - 0,0 km/h (0 Bft) - - - 0,5 C -0,8 C
_ Max-Zeit 16:14 21:09 20:49 18:19 17:29 - - 00:00 10:20 13:39
Maximum _ 16,4 C 84 % 1021,7 hPa 1,4 l/m 35,4 km/h
N-NW (5 Bft)
- - 0 min 6,6 C 14,7 C
Durchschnitt _ 9,5 C 66 % 1017,8 hPa #4,0 l/m 7,2 km/h (2 Bft) N-NW - #0 min. 3,0 C 7,6 C